Time;durP1;ratioP1;P1;durP2;ratioP2;P2;SDS_P1;SDS_P2;PMS_P1;PMS_P2;Temp;Humidity;BMP_temperature;BMP_pressure;BME280_temperature;BME280_humidity;BME280_pressure;Samples;Min_cycle;Max_cycle;Signal;HPM_P1;HPM_P2
2023/07/14 00:00:14;;;;;;;27.25;24.55;;;;;;;27.21;100.00;-4403.88;5072849;28;20238;-57
2023/07/14 00:02:41;;;;;;;26.27;23.60;;;;;;;27.03;100.00;-9640.84;5072921;28;20184;-58
2023/07/14 00:05:14;;;;;;;22.70;20.58;;;;;;;26.96;100.00;-11601.66;5072477;28;20189;-56
2023/07/14 00:07:41;;;;;;;21.77;20.08;;;;;;;26.79;100.00;-8657.63;5073289;28;20180;-58
2023/07/14 00:10:17;;;;;;;21.52;19.88;;;;;;;26.35;100.00;-13552.63;5071219;28;20192;-57
2023/07/14 00:12:44;;;;;;;21.50;19.75;;;;;;;26.26;100.00;-13551.13;5072688;28;20535;-57
2023/07/14 00:15:12;;;;;;;22.42;20.42;;;;;;;26.17;100.00;-12897.19;5072981;28;20189;-57
2023/07/14 00:17:38;;;;;;;22.90;20.67;;;;;;;26.06;100.00;-13874.16;5070974;28;20216;-56
2023/07/14 00:20:26;;;;;;;21.15;19.35;;;;;;;25.98;100.00;-12568.16;5072975;28;20196;-57
2023/07/14 00:22:54;;;;;;;22.98;20.63;;;;;;;26.04;100.00;-16155.91;5072195;28;20188;-57
2023/07/14 00:25:24;;;;;;;22.33;20.08;;;;;;;26.00;100.00;-16480.97;5072176;28;20196;-57
2023/07/14 00:27:53;;;;;;;21.27;19.23;;;;;;;25.96;100.00;-16154.31;5072116;28;20184;-57
2023/07/14 00:30:22;;;;;;;23.00;20.30;;;;;;;25.94;100.00;-18108.38;5072579;28;20207;-57
2023/07/14 00:32:52;;;;;;;22.83;20.17;;;;;;;26.01;100.00;-18437.47;5072247;28;20207;-57
2023/07/14 00:35:21;;;;;;;22.00;19.98;;;;;;;25.92;100.00;-18435.56;5071965;28;20189;-57
2023/07/14 00:37:48;;;;;;;22.65;20.52;;;;;;;25.94;100.00;-18435.91;5071727;28;20200;-56
2023/07/14 00:40:18;;;;;;;24.75;22.38;;;;;;;25.78;100.00;-18432.13;5071948;28;20196;-57
2023/07/14 00:42:50;;;;;;;22.40;20.38;;;;;;;25.87;100.00;-18434.38;5072098;28;20180;-57
2023/07/14 00:45:21;;;;;;;23.33;21.17;;;;;;;25.92;100.00;-18435.44;5072257;28;20247;-57
2023/07/14 00:47:52;;;;;;;24.98;21.17;;;;;;;25.65;100.00;-18427.28;5071809;28;20185;-57
2023/07/14 00:50:27;;;;;;;22.83;20.88;;;;;;;25.73;100.00;-18103.66;5072382;28;20238;-56
2023/07/14 00:52:55;;;;;;;24.02;20.40;;;;;;;25.71;100.00;-17452.06;5071606;28;20195;-56
2023/07/14 00:55:32;;;;;;;23.85;21.30;;;;;;;25.63;100.00;-17124.63;5072260;28;20189;-57
2023/07/14 00:58:01;;;;;;;25.55;22.70;;;;;;;25.67;100.00;-17125.59;5071841;28;20227;-58
2023/07/14 01:00:30;;;;;;;30.38;23.48;;;;;;;25.42;100.00;-16794.78;5072305;28;20188;-57
2023/07/14 01:02:57;;;;;;;31.30;24.40;;;;;;;25.32;100.00;-16792.69;5071757;28;20284;-57
2023/07/14 01:05:25;;;;;;;26.05;23.58;;;;;;;25.26;100.00;-16140.50;5071833;28;20686;-57
2023/07/14 01:07:53;;;;;;;24.40;22.17;;;;;;;25.32;100.00;-15490.50;5071507;28;20188;-57
2023/07/14 01:10:23;;;;;;;29.05;23.58;;;;;;;25.30;100.00;-15164.59;5071751;28;20284;-56
2023/07/14 01:12:57;;;;;;;32.88;24.60;;;;;;;25.09;100.00;-15811.69;5071338;28;20188;-58
2023/07/14 01:15:25;;;;;;;31.30;24.90;;;;;;;25.11;100.00;-15811.97;5071357;28;20189;-57
2023/07/14 01:17:54;;;;;;;30.35;24.73;;;;;;;25.03;100.00;-15159.63;5071637;28;20211;-58
2023/07/14 01:20:21;;;;;;;27.38;24.38;;;;;;;25.22;100.00;-15488.69;5071648;28;20555;-56
2023/07/14 01:23:00;;;;;;;32.28;26.55;;;;;;;25.22;100.00;-15488.59;5071263;28;20257;-57
2023/07/14 01:25:50;;;;;;;26.83;23.58;;;;;;;25.29;100.00;-15490.00;5071505;28;20189;-56
2023/07/14 01:28:19;;;;;;;30.98;25.67;;;;;;;25.22;100.00;-14837.53;5071613;28;20180;-57
2023/07/14 01:30:46;;;;;;;31.70;25.15;;;;;;;24.93;100.00;-15483.19;5071323;28;20206;-57
2023/07/14 01:33:16;;;;;;;27.92;25.02;;;;;;;25.05;100.00;-15810.78;5071459;28;20200;-57
2023/07/14 01:35:46;;;;;;;28.13;25.10;;;;;;;25.08;100.00;-16462.28;5071996;28;20189;-56
2023/07/14 01:38:13;;;;;;;28.13;23.98;;;;;;;24.91;100.00;-15808.25;5071254;28;20204;-57
2023/07/14 01:40:41;;;;;;;26.70;23.90;;;;;;;25.00;100.00;-15809.91;5071150;28;20181;-58
2023/07/14 01:43:12;;;;;;;31.70;24.00;;;;;;;24.88;100.00;-16133.00;5071061;28;20215;-57
2023/07/14 01:45:44;;;;;;;27.20;23.30;;;;;;;24.92;100.00;-16133.69;5070171;28;20690;-58
2023/07/14 01:48:15;;;;;;;42.55;25.02;;;;;;;24.93;100.00;-16784.47;5071361;28;20638;-57
2023/07/14 01:50:45;;;;;;;31.27;24.42;;;;;;;24.88;100.00;-16458.28;5071108;28;20216;-57
2023/07/14 01:53:18;;;;;;;33.60;26.02;;;;;;;24.95;100.00;-16784.91;5071368;28;20199;-57
2023/07/14 01:55:47;;;;;;;34.63;25.00;;;;;;;25.05;100.00;-16786.91;5070973;28;20234;-57
2023/07/14 01:58:18;;;;;;;33.08;26.55;;;;;;;25.11;100.00;-16788.16;5071751;28;20655;-58
2023/07/14 02:00:49;;;;;;;35.47;27.38;;;;;;;25.06;100.00;-17112.53;5070984;28;20189;-56
2023/07/14 02:03:25;;;;;;;40.03;30.38;;;;;;;24.93;100.00;-17434.94;5071259;28;20204;-59
2023/07/14 02:05:51;;;;;;;38.42;28.30;;;;;;;24.54;100.00;-17426.50;5071204;28;20594;-58
2023/07/14 02:08:23;;;;;;;29.30;26.20;;;;;;;24.44;100.00;-16774.34;5071864;28;20611;-57
2023/07/14 02:10:50;;;;;;;32.80;26.13;;;;;;;24.37;100.00;-16772.88;5071201;28;20192;-57
2023/07/14 02:13:17;;;;;;;26.30;23.58;;;;;;;24.50;100.00;-16125.38;5070825;28;20185;-57
2023/07/14 02:15:44;;;;;;;26.63;23.83;;;;;;;24.19;100.00;-16119.16;5070865;28;20196;-57
2023/07/14 02:18:18;;;;;;;27.80;23.92;;;;;;;24.49;100.00;-16450.34;5071126;28;20209;-57
2023/07/14 02:20:47;;;;;;;25.88;23.58;;;;;;;24.46;100.00;-17099.66;5073183;28;20189;-57
2023/07/14 02:23:17;;;;;;;27.77;24.60;;;;;;;24.59;100.00;-17102.47;5074765;28;20181;-58
2023/07/14 02:25:54;;;;;;;25.50;23.35;;;;;;;24.60;100.00;-17102.59;5074496;28;20225;-56
2023/07/14 02:28:21;;;;;;;27.30;23.52;;;;;;;24.70;100.00;-16779.72;5074681;28;20558;-57
2023/07/14 02:30:55;;;;;;;26.33;23.67;;;;;;;24.73;100.00;-17105.50;5074599;28;20631;-58
2023/07/14 02:33:27;;;;;;;26.00;23.48;;;;;;;24.70;100.00;-17429.84;5074601;28;20184;-58
2023/07/14 02:36:01;;;;;;;29.13;23.58;;;;;;;24.89;100.00;-17434.03;5074161;28;20189;-57
2023/07/14 02:38:28;;;;;;;30.98;23.02;;;;;;;24.94;100.00;-17760.34;5074383;28;20209;-57
2023/07/14 02:41:03;;;;;;;34.35;23.45;;;;;;;24.89;100.00;-18084.31;5074400;28;20180;-57
2023/07/14 02:43:30;;;;;;;26.23;22.33;;;;;;;24.81;100.00;-18082.59;5073983;28;20200;-57
2023/07/14 02:45:59;;;;;;;24.23;22.02;;;;;;;24.64;100.00;-18078.53;5074107;28;20725;-58
2023/07/14 02:48:34;;;;;;;24.75;22.13;;;;;;;24.72;100.00;-18405.50;5074362;28;20706;-58
2023/07/14 02:51:02;;;;;;;24.35;21.58;;;;;;;24.72;100.00;-18405.50;5074257;28;20188;-58
2023/07/14 02:53:29;;;;;;;24.90;22.27;;;;;;;24.78;100.00;-18406.81;5074117;28;20186;-57
2023/07/14 02:55:56;;;;;;;27.05;22.67;;;;;;;24.79;100.00;-18407.16;5074130;28;20188;-57
2023/07/14 02:58:23;;;;;;;28.23;22.13;;;;;;;24.91;100.00;-18410.00;5073632;28;20204;-57
2023/07/14 03:00:50;;;;;;;26.80;24.00;;;;;;;24.75;100.00;-18406.22;5074053;28;20181;-56
2023/07/14 03:03:18;;;;;;;27.15;22.55;;;;;;;24.66;100.00;-18404.06;5073935;28;20195;-58
2023/07/14 03:05:46;;;;;;;26.60;23.05;;;;;;;24.67;100.00;-18404.31;5074022;28;20193;-57
2023/07/14 03:08:15;;;;;;;37.47;24.33;;;;;;;24.78;100.00;-18406.91;5074384;28;20189;-57
2023/07/14 03:10:43;;;;;;;25.85;23.50;;;;;;;24.79;100.00;-18407.16;5074152;28;20216;-58
2023/07/14 03:13:10;;;;;;;30.70;21.75;;;;;;;24.86;100.00;-18408.69;5073722;28;20279;-57
2023/07/14 03:15:36;;;;;;;28.92;23.90;;;;;;;24.86;100.00;-18408.69;5073746;28;20196;-56
2023/07/14 03:18:04;;;;;;;33.80;29.67;;;;;;;24.89;100.00;-18411.31;5073282;28;20224;-57
2023/07/14 03:20:31;;;;;;;36.65;31.20;;;;;;;24.94;100.00;-18412.50;5073795;28;20643;-57
2023/07/14 03:22:59;;;;;;;32.25;28.92;;;;;;;25.04;100.00;-18412.84;5073673;28;20185;-57
2023/07/14 03:25:27;;;;;;;34.10;30.45;;;;;;;25.10;100.00;-18414.38;5073268;28;20284;-57
2023/07/14 03:27:54;;;;;;;28.27;25.13;;;;;;;25.21;100.00;-18416.88;5073168;28;20188;-56
2023/07/14 03:30:20;;;;;;;28.75;25.35;;;;;;;25.24;100.00;-18419.47;5073268;28;20184;-57
2023/07/14 03:32:50;;;;;;;26.02;23.38;;;;;;;25.42;100.00;-18423.75;5072151;28;20189;-57
2023/07/14 03:35:18;;;;;;;26.52;23.85;;;;;;;25.32;100.00;-18421.38;5073427;28;20258;-57
2023/07/14 03:37:45;;;;;;;34.88;24.67;;;;;;;25.50;100.00;-18425.63;5072989;28;20189;-58
2023/07/14 03:40:14;;;;;;;28.02;23.70;;;;;;;25.62;100.00;-18428.47;5073146;28;20200;-57
2023/07/14 03:42:43;;;;;;;32.42;24.67;;;;;;;25.80;100.00;-18432.72;5073125;28;20192;-57
2023/07/14 03:45:10;;;;;;;31.67;23.75;;;;;;;25.84;100.00;-18433.66;5073195;28;20252;-57
2023/07/14 03:47:39;;;;;;;32.50;22.42;;;;;;;25.91;100.00;-18435.31;5073236;28;20555;-57
2023/07/14 03:50:07;;;;;;;30.17;22.45;;;;;;;26.05;100.00;-16156.00;5073248;28;20207;-57
2023/07/14 03:52:34;;;;;;;27.00;22.23;;;;;;;26.27;100.00;-13224.97;5072894;28;20189;-57
2023/07/14 03:55:01;;;;;;;30.27;22.10;;;;;;;26.51;100.00;-11596.03;5073006;28;20181;-57
2023/07/14 03:57:31;;;;;;;25.45;22.95;;;;;;;26.63;100.00;-8656.38;5073013;28;20188;-58
2023/07/14 03:59:58;;;;;;;32.95;24.67;;;;;;;26.93;100.00;-7350.00;5072494;28;20205;-57
2023/07/14 04:02:25;;;;;;;30.58;24.58;;;;;;;27.03;100.00;-4076.06;5072938;28;20559;-58
2023/07/14 04:04:52;;;;;;;25.73;23.08;;;;;;;27.25;100.00;187.09;5071409;28;20203;-58
2023/07/14 04:07:19;;;;;;;25.20;21.83;;;;;;;27.45;100.00;8076.06;5072545;28;20185;-57
2023/07/14 04:09:45;;;;;;;24.55;22.13;;;;;;;27.32;100.00;12023.78;5072818;28;20673;-58
2023/07/14 04:12:12;;;;;;;27.00;22.10;;;;;;;27.71;100.00;13352.19;5072456;28;20187;-57
2023/07/14 04:14:40;;;;;;;29.15;22.23;;;;;;;27.92;100.00;17318.03;5072708;28;20184;-58
2023/07/14 04:17:07;;;;;;;27.90;21.55;;;;;;;28.08;100.00;21950.69;5072667;28;20189;-57
2023/07/14 04:19:34;;;;;;;33.13;20.83;;;;;;;28.17;100.00;24932.78;5072253;28;20200;-56
2023/07/14 04:22:01;;;;;;;35.92;22.65;;;;;;;28.32;100.00;26927.34;5072508;28;20682;-57
2023/07/14 04:24:28;;;;;;;24.52;22.13;;;;;;;28.61;100.00;26610.06;5072203;28;20192;-57
2023/07/14 04:26:55;;;;;;;25.63;22.67;;;;;;;28.60;100.00;29594.66;5072959;28;20547;-56
2023/07/14 04:29:22;;;;;;;23.67;21.40;;;;;;;28.92;100.00;35591.91;5072558;28;20650;-57
2023/07/14 04:31:50;;;;;;;34.45;24.75;;;;;;;29.05;100.00;40926.34;5072360;28;20500;-56
2023/07/14 04:34:17;;;;;;;23.80;21.38;;;;;;;29.15;100.00;46936.22;5072300;28;20570;-57
2023/07/14 04:36:46;;;;;;;23.50;21.08;;;;;;;29.28;100.00;50956.06;5072322;28;20203;-58
2023/07/14 04:39:13;;;;;;;23.33;20.88;;;;;;;29.36;100.00;57656.00;5071806;28;20205;-56
2023/07/14 04:41:41;;;;;;;22.15;20.00;;;;;;;29.49;100.00;57668.81;5072000;28;20189;-58
2023/07/14 04:44:10;;;;;;;20.20;18.33;;;;;;;29.52;100.00;59011.28;5071874;28;20201;-57
2023/07/14 04:46:37;;;;;;;22.42;19.90;;;;;;;29.34;100.00;49958.16;5070527;28;20329;-57
2023/07/14 04:49:06;;;;;;;28.10;20.25;;;;;;;29.55;100.00;51313.81;5072034;28;20559;-57
2023/07/14 04:51:33;;;;;;;20.42;18.75;;;;;;;29.49;100.00;61355.81;5071727;28;20193;-57
2023/07/14 04:54:00;;;;;;;18.33;16.75;;;;;;;29.70;100.00;94417.78;5072081;28;20195;-57
2023/07/14 04:56:28;;;;;;;21.20;16.38;;;;;;;29.88;100.00;153561.34;5072232;28;20554;-57
2023/07/14 04:58:54;;;;;;;17.35;15.77;;;;;;;30.22;100.00;153648.47;5071587;28;20208;-57
2023/07/14 05:01:22;;;;;;;16.85;14.70;;;;;;;30.37;100.00;153686.97;5071540;28;20196;-57
2023/07/14 05:03:49;;;;;;;17.13;15.57;;;;;;;30.54;100.00;153728.03;5071492;28;20185;-60
2023/07/14 05:06:17;;;;;;;15.82;14.50;;;;;;;30.71;100.00;153771.59;5071751;28;20189;-60
2023/07/14 05:08:44;;;;;;;16.27;14.68;;;;;;;30.62;100.00;153748.53;5071737;28;20274;-59
2023/07/14 05:11:13;;;;;;;15.75;14.30;;;;;;;30.89;100.00;153817.78;5071708;28;20559;-59
2023/07/14 05:13:40;;;;;;;25.17;16.27;;;;;;;31.20;100.00;153897.28;5071754;28;20207;-57
2023/07/14 05:16:07;;;;;;;18.20;14.52;;;;;;;31.41;100.00;153948.59;5071493;28;20189;-56
2023/07/14 05:18:35;;;;;;;29.75;16.10;;;;;;;31.52;100.00;153976.81;5071459;28;20301;-57
2023/07/14 05:21:04;;;;;;;28.23;15.98;;;;;;;31.69;100.00;154020.50;5071472;28;20191;-56
2023/07/14 05:23:33;;;;;;;37.67;15.93;;;;;;;31.77;100.00;154039.72;5071563;28;20230;-56
2023/07/14 05:26:01;;;;;;;72.22;17.70;;;;;;;31.79;100.00;154046.13;5071792;28;20557;-56
2023/07/14 05:28:28;;;;;;;31.20;14.90;;;;;;;31.47;100.00;153964.00;5071742;28;20189;-56
2023/07/14 05:30:54;;;;;;;17.42;14.40;;;;;;;31.92;100.00;154078.19;5071456;28;20623;-56
2023/07/14 05:33:22;;;;;;;18.17;12.07;;;;;;;31.92;100.00;154079.47;5071111;28;20189;-55
2023/07/14 05:35:49;;;;;;;12.82;11.63;;;;;;;31.86;100.00;154064.13;5071625;28;20624;-56
2023/07/14 05:38:17;;;;;;;12.02;11.00;;;;;;;31.85;100.00;154061.53;5071421;28;20185;-56
2023/07/14 05:40:51;;;;;;;10.65;9.77;;;;;;;31.87;100.00;154065.41;5071442;28;20626;-56
2023/07/14 05:43:18;;;;;;;12.27;10.65;;;;;;;32.27;100.00;154168.06;5071276;28;20196;-56
2023/07/14 05:45:47;;;;;;;20.67;10.07;;;;;;;32.39;100.00;154198.84;5071352;28;20249;-56
2023/07/14 05:48:16;;;;;;;25.65;23.05;;;;;;;32.84;100.00;154311.88;5071265;28;20663;-58
2023/07/14 05:50:44;;;;;;;8.50;7.70;;;;;;;33.00;100.00;154354.22;5070972;28;20195;-58
2023/07/14 05:53:11;;;;;;;10.10;7.53;;;;;;;33.33;100.00;154436.41;5071213;28;20704;-57
2023/07/14 05:55:37;;;;;;;9.10;6.80;;;;;;;33.67;100.00;154523.78;5073099;28;20188;-57
2023/07/14 05:58:06;;;;;;;7.10;6.45;;;;;;;33.63;100.00;154512.19;5075033;28;20268;-60
2023/07/14 06:00:38;;;;;;;8.30;7.00;;;;;;;33.46;98.05;154471.09;5074477;28;20205;-56
2023/07/14 06:03:06;;;;;;;6.95;6.40;;;;;;;33.47;97.75;154473.69;5074926;28;20185;-57
2023/07/14 06:05:33;;;;;;;13.45;6.18;;;;;;;33.41;96.09;154456.97;5074549;28;20193;-57
2023/07/14 06:08:00;;;;;;;7.47;5.85;;;;;;;33.56;93.11;154495.50;5074580;28;20263;-56
2023/07/14 06:10:27;;;;;;;7.57;5.22;;;;;;;33.08;92.28;154374.75;5075188;28;20189;-56
2023/07/14 06:12:54;;;;;;;12.43;7.25;;;;;;;33.31;91.65;154431.31;5074349;28;20228;-57
2023/07/14 06:15:23;;;;;;;11.18;4.95;;;;;;;32.99;90.42;154350.34;5065991;28;20205;-58
2023/07/14 06:17:51;;;;;;;11.70;5.93;;;;;;;33.38;87.04;154449.25;5073010;28;20336;-57
2023/07/14 06:20:20;;;;;;;17.85;5.72;;;;;;;33.55;86.66;154491.63;5073353;28;20219;-55
2023/07/14 06:22:48;;;;;;;15.02;4.95;;;;;;;33.61;90.36;154508.31;5062526;28;20304;-57
2023/07/14 06:25:15;;;;;;;14.35;5.80;;;;;;;34.12;85.74;154636.84;5070071;28;20200;-58
2023/07/14 06:27:42;;;;;;;10.57;5.13;;;;;;;34.12;86.71;154638.06;5065223;28;20228;-58
2023/07/14 06:30:11;;;;;;;23.95;5.32;;;;;;;34.44;83.05;154719.06;5058354;28;20647;-57
2023/07/14 06:32:40;;;;;;;7.00;4.63;;;;;;;34.47;80.93;154726.78;5074391;28;20184;-57
2023/07/14 06:35:08;;;;;;;13.57;5.18;;;;;;;34.40;83.34;154708.81;5059349;28;20201;-56
2023/07/14 06:37:35;;;;;;;43.72;6.85;;;;;;;34.38;86.07;154703.63;5054270;28;20566;-57
2023/07/14 06:40:03;;;;;;;21.45;5.68;;;;;;;34.51;88.69;154737.06;5053886;28;20220;-57
2023/07/14 06:42:30;;;;;;;11.98;5.40;;;;;;;33.96;91.63;154598.28;5053126;28;20201;-56
2023/07/14 06:44:57;;;;;;;11.77;5.97;;;;;;;33.99;94.32;154604.72;5054266;28;20199;-56
2023/07/14 06:47:24;;;;;;;7.20;5.40;;;;;;;33.77;89.35;154549.50;5054169;28;20189;-57
2023/07/14 06:49:52;;;;;;;18.27;4.78;;;;;;;33.99;81.42;154603.44;5054227;28;20575;-57
2023/07/14 06:52:19;;;;;;;26.92;5.15;;;;;;;34.10;78.45;154632.97;5054298;28;20531;-57
2023/07/14 06:54:47;;;;;;;21.90;4.53;;;;;;;34.17;80.96;154649.69;5053696;28;20193;-57
2023/07/14 06:57:14;;;;;;;25.52;4.72;;;;;;;34.19;82.86;154654.84;5053499;28;20193;-57
2023/07/14 06:59:41;;;;;;;17.33;4.45;;;;;;;33.80;88.20;154555.91;5053484;28;20213;-57
2023/07/14 07:02:11;;;;;;;14.60;4.05;;;;;;;33.69;85.78;154527.66;5072937;28;20276;-57
2023/07/14 07:04:38;;;;;;;9.60;3.67;;;;;;;33.27;86.56;154421.03;5072834;28;20298;-56
2023/07/14 07:07:06;;;;;;;13.82;4.20;;;;;;;33.31;86.34;154431.31;5072921;28;20188;-57
2023/07/14 07:09:34;;;;;;;11.70;3.53;;;;;;;32.43;86.71;154207.81;5069299;28;20651;-57
2023/07/14 07:12:01;;;;;;;10.60;3.50;;;;;;;32.43;85.70;154209.13;5073326;28;20212;-56
2023/07/14 07:14:28;;;;;;;13.35;3.58;;;;;;;32.93;87.66;154334.97;5073107;28;20197;-59
2023/07/14 07:16:55;;;;;;;10.65;3.33;;;;;;;33.07;83.78;154372.19;5073373;28;20635;-58
2023/07/14 07:19:22;;;;;;;6.60;2.97;;;;;;;33.51;73.50;154482.66;5072675;28;20209;-57
2023/07/14 07:21:49;;;;;;;8.50;2.85;;;;;;;33.28;72.58;154424.84;5072746;28;20192;-58
2023/07/14 07:24:17;;;;;;;10.20;3.17;;;;;;;33.53;75.51;154487.75;5073025;28;20540;-59
2023/07/14 07:26:44;;;;;;;10.65;3.42;;;;;;;33.57;72.76;154498.03;5072688;28;20603;-58
2023/07/14 07:29:11;;;;;;;8.55;2.72;;;;;;;33.70;73.89;154531.47;5072482;28;20191;-58
2023/07/14 07:31:38;;;;;;;3.65;2.60;;;;;;;33.74;70.84;154540.47;5072542;28;20212;-58
2023/07/14 07:34:05;;;;;;;11.23;2.85;;;;;;;34.15;71.52;154645.81;5073002;28;20221;-58
2023/07/14 07:36:32;;;;;;;13.98;2.80;;;;;;;33.80;69.96;154557.19;5072773;28;20215;-58
2023/07/14 07:38:59;;;;;;;7.72;2.08;;;;;;;33.95;69.95;154594.41;5072535;28;20185;-58
2023/07/14 07:41:30;;;;;;;8.35;2.05;;;;;;;34.12;69.42;154636.84;5072392;28;20188;-58
2023/07/14 07:43:57;;;;;;;6.53;2.60;;;;;;;34.15;69.68;154645.81;5070312;28;20192;-58
2023/07/14 07:46:27;;;;;;;4.43;1.73;;;;;;;34.03;68.79;154615.00;5072153;28;20216;-57
2023/07/14 07:48:54;;;;;;;4.53;1.90;;;;;;;34.19;71.09;154654.84;5069846;28;20181;-58
2023/07/14 07:51:21;;;;;;;4.53;2.30;;;;;;;34.30;70.96;154683.09;5072141;28;20271;-59
2023/07/14 07:53:48;;;;;;;12.68;2.72;;;;;;;34.51;69.73;154735.75;5072096;28;20196;-58
2023/07/14 07:56:19;;;;;;;5.20;2.55;;;;;;;34.74;68.29;154796.22;5072311;28;20195;-58
2023/07/14 07:58:48;;;;;;;4.35;2.53;;;;;;;35.00;67.35;154860.47;5072392;28;20188;-58
2023/07/14 08:01:19;;;;;;;5.60;2.70;;;;;;;35.15;67.05;154900.34;5069678;28;20278;-58
2023/07/14 08:03:45;;;;;;;7.35;3.22;;;;;;;35.29;63.53;154935.06;5072240;28;20643;-58
2023/07/14 08:06:12;;;;;;;5.40;3.08;;;;;;;35.33;64.31;154945.34;5072404;28;20199;-58
2023/07/14 08:08:39;;;;;;;6.40;3.08;;;;;;;35.50;64.09;154989.06;5072237;28;20603;-59
2023/07/14 08:11:09;;;;;;;8.65;4.55;;;;;;;35.91;63.75;155091.94;5071824;28;20185;-56
2023/07/14 08:13:36;;;;;;;3.67;2.63;;;;;;;36.12;62.40;155145.97;5068186;28;20242;-59
2023/07/14 08:16:04;;;;;;;4.80;3.10;;;;;;;36.61;59.59;155272.09;5071656;28;20191;-58
2023/07/14 08:18:32;;;;;;;4.45;3.10;;;;;;;37.24;54.19;155431.66;5071350;28;20189;-57
2023/07/14 08:21:01;;;;;;;5.88;3.13;;;;;;;37.46;53.83;155488.28;5071289;28;20222;-58
2023/07/14 08:23:28;;;;;;;3.88;3.53;;;;;;;37.64;49.99;155532.09;5071520;28;20197;-58
2023/07/14 08:25:56;;;;;;;4.20;3.90;;;;;;;37.61;50.37;155524.31;5071465;28;20181;-58
2023/07/14 08:28:24;;;;;;;9.27;6.53;;;;;;;37.14;50.58;155405.91;5071528;28;20200;-61
2023/07/14 08:30:55;;;;;;;10.48;3.53;;;;;;;36.67;52.81;155284.91;5071298;28;20188;-59
2023/07/14 08:33:26;;;;;;;11.02;4.88;;;;;;;36.52;54.18;155248.88;5071565;28;20218;-59
2023/07/14 08:35:54;;;;;;;10.43;4.75;;;;;;;36.53;57.56;155251.47;5068487;28;20244;-58
2023/07/14 08:38:23;;;;;;;7.63;3.80;;;;;;;36.55;54.75;155256.59;5071495;28;20504;-59
2023/07/14 08:40:55;;;;;;;7.88;3.60;;;;;;;36.37;55.56;155210.28;5071320;28;20205;-59
2023/07/14 08:43:32;;;;;;;5.30;4.22;;;;;;;36.67;55.69;155284.91;5071148;28;20263;-59
2023/07/14 08:46:04;;;;;;;7.97;4.63;;;;;;;36.79;58.01;155315.81;5069284;28;20365;-59
2023/07/14 08:48:38;;;;;;;8.48;4.18;;;;;;;36.43;59.21;155224.44;5071167;28;20617;-58
2023/07/14 08:51:18;;;;;;;4.70;3.50;;;;;;;36.52;56.74;155247.59;5070866;28;20238;-58
2023/07/14 08:53:50;;;;;;;6.72;3.80;;;;;;;37.03;55.56;155378.84;5067334;28;20567;-59
2023/07/14 08:56:21;;;;;;;4.22;3.50;;;;;;;37.18;53.86;155416.19;5065935;28;20185;-58
2023/07/14 08:58:49;;;;;;;4.95;4.05;;;;;;;37.36;53.10;155462.53;5070879;28;20204;-58
2023/07/14 09:01:28;;;;;;;5.30;3.50;;;;;;;37.50;48.80;155498.56;5067391;28;20543;-59
2023/07/14 09:03:59;;;;;;;4.78;3.95;;;;;;;37.27;49.84;155438.06;5068719;28;20585;-58
2023/07/14 09:06:32;;;;;;;9.50;4.50;;;;;;;37.40;51.44;155472.81;5071580;28;20555;-59
2023/07/14 09:09:03;;;;;;;11.10;4.35;;;;;;;37.45;50.70;155485.69;5066642;28;20235;-59
2023/07/14 09:11:52;;;;;;;16.17;4.50;;;;;;;37.55;51.84;155510.22;5070731;28;20181;-59
2023/07/14 09:14:43;;;;;;;9.93;4.25;;;;;;;37.61;52.51;155524.31;5069265;28;20564;-58
2023/07/14 09:17:18;;;;;;;6.50;3.58;;;;;;;37.61;51.38;155524.31;5070414;28;20215;-58
2023/07/14 09:20:07;;;;;;;4.03;3.53;;;;;;;37.32;50.04;155450.94;5071140;28;20620;-62
2023/07/14 09:22:41;;;;;;;11.77;4.10;;;;;;;37.64;52.88;155533.34;5068877;28;20207;-59
2023/07/14 09:25:18;;;;;;;5.85;4.38;;;;;;;37.86;50.61;155589.97;5070956;28;20199;-60
2023/07/14 09:27:48;;;;;;;3.85;3.55;;;;;;;38.10;49.09;155649.25;5069780;28;20654;-59
2023/07/14 09:30:19;;;;;;;10.00;3.83;;;;;;;38.23;47.10;155684.00;5067937;28;20212;-58
2023/07/14 09:32:59;;;;;;;4.40;4.05;;;;;;;38.43;48.05;155732.97;5071101;28;20215;-60
2023/07/14 09:35:29;;;;;;;3.92;3.60;;;;;;;38.74;48.57;155814.09;5070385;28;20708;-58
2023/07/14 09:38:03;;;;;;;4.28;3.60;;;;;;;38.99;45.95;155877.25;5068679;28;20216;-59
2023/07/14 09:40:32;;;;;;;4.53;3.55;;;;;;;39.41;44.57;155984.19;5070453;28;20205;-58
2023/07/14 09:43:01;;;;;;;8.25;3.50;;;;;;;39.68;43.09;156053.72;5071175;28;20560;-58
2023/07/14 09:45:30;;;;;;;8.63;4.22;;;;;;;40.04;42.46;156143.97;5071295;28;20233;-58
2023/07/14 09:48:02;;;;;;;5.53;3.92;;;;;;;40.08;41.75;156154.28;5071337;28;20189;-58
2023/07/14 09:50:35;;;;;;;4.50;4.10;;;;;;;40.16;40.09;156176.22;5071238;28;20710;-59
2023/07/14 09:53:05;;;;;;;4.30;3.83;;;;;;;40.59;40.67;156284.53;5071379;28;20184;-60
2023/07/14 09:55:44;;;;;;;9.10;6.53;;;;;;;40.51;42.49;156265.16;5071226;28;20352;-59
2023/07/14 09:58:15;;;;;;;5.78;3.83;;;;;;;39.77;40.69;156075.66;5070964;28;20193;-58
2023/07/14 10:00:42;;;;;;;6.00;3.90;;;;;;;39.49;40.37;156003.50;5071022;28;20609;-59
2023/07/14 10:03:16;;;;;;;4.18;3.78;;;;;;;38.26;42.21;155691.72;5071033;28;20217;-58
2023/07/14 10:05:57;;;;;;;8.45;4.43;;;;;;;37.55;46.10;155508.91;5071011;28;20181;-59
2023/07/14 10:08:30;;;;;;;5.75;3.92;;;;;;;38.13;49.29;155656.97;5070906;28;20239;-59
2023/07/14 10:11:00;;;;;;;7.75;4.50;;;;;;;37.63;48.15;155529.50;5071216;28;20697;-59
2023/07/14 10:13:32;;;;;;;10.68;4.50;;;;;;;37.32;49.64;155450.94;5070941;28;20188;-61
2023/07/14 10:16:07;;;;;;;5.32;3.65;;;;;;;37.73;48.17;155555.22;5070904;28;20181;-61
2023/07/14 10:18:48;;;;;;;4.50;4.13;;;;;;;37.81;47.49;155575.84;5071590;28;20248;-64
2023/07/14 10:21:24;;;;;;;8.63;3.83;;;;;;;37.11;50.21;155398.19;5071384;28;20542;-65
2023/07/14 10:23:58;;;;;;;5.15;4.05;;;;;;;36.99;51.90;155367.28;5070716;28;20189;-63
2023/07/14 10:26:29;;;;;;;6.53;3.80;;;;;;;37.01;51.14;155372.41;5070664;28;20615;-64
2023/07/14 10:28:57;;;;;;;4.10;3.80;;;;;;;37.12;50.65;155400.78;5072161;28;20185;-64
2023/07/14 10:31:33;;;;;;;4.30;4.00;;;;;;;37.33;50.03;155454.81;5071214;28;20184;-65
2023/07/14 10:34:19;;;;;;;6.97;4.10;;;;;;;37.27;51.52;155438.06;5071631;28;20188;-63
2023/07/14 10:36:47;;;;;;;7.03;3.95;;;;;;;37.26;50.43;155436.78;5071946;28;20593;-66
2023/07/14 10:39:25;;;;;;;5.88;4.45;;;;;;;37.29;51.27;155443.25;5071161;28;20528;-64
2023/07/14 10:41:52;;;;;;;6.07;4.35;;;;;;;37.34;50.33;155457.41;5072863;28;20211;-64
2023/07/14 10:44:27;;;;;;;6.63;4.57;;;;;;;37.14;52.59;155405.91;5074253;28;20228;-65
2023/07/14 10:47:00;;;;;;;5.47;4.53;;;;;;;36.93;53.95;155351.81;5072514;28;20232;-64
2023/07/14 10:49:33;;;;;;;8.45;3.97;;;;;;;36.82;50.93;155323.53;5073880;28;20192;-64
2023/07/14 10:52:06;;;;;;;4.82;3.90;;;;;;;36.83;52.64;155327.41;5074506;28;20193;-65
2023/07/14 10:54:44;;;;;;;6.03;4.75;;;;;;;36.49;55.60;155241.19;5074004;28;20519;-64
2023/07/14 10:57:20;;;;;;;5.15;4.35;;;;;;;35.94;62.38;155099.69;5074070;28;20184;-65
2023/07/14 10:59:52;;;;;;;7.55;3.75;;;;;;;35.40;65.70;154963.31;5074029;28;20196;-65
2023/07/14 11:02:23;;;;;;;5.30;3.72;;;;;;;35.45;72.34;154976.19;5073679;28;20213;-64
2023/07/14 11:04:57;;;;;;;3.97;3.67;;;;;;;35.12;79.48;154891.31;5073659;28;20193;-65
2023/07/14 11:07:35;;;;;;;7.28;3.90;;;;;;;34.73;89.71;154793.66;5074002;28;20219;-66
2023/07/14 11:10:05;;;;;;;6.35;4.00;;;;;;;34.44;91.88;154719.06;5073624;28;20196;-65
2023/07/14 11:12:38;;;;;;;5.72;3.88;;;;;;;34.11;98.23;154634.25;5073880;28;20184;-63
2023/07/14 11:15:20;;;;;;;4.90;3.75;;;;;;;33.79;100.00;154554.59;5073792;28;20524;-63
2023/07/14 11:17:57;;;;;;;11.30;4.20;;;;;;;33.38;100.00;154450.56;5073604;28;20185;-64
2023/07/14 11:20:30;;;;;;;8.77;4.07;;;;;;;33.31;100.00;154431.31;5072294;28;20550;-63
2023/07/14 11:23:09;;;;;;;7.50;3.50;;;;;;;32.98;100.00;154349.06;5073390;28;20196;-64